createdAt,value
2022-10-02T00:04:12.125Z,5.93
2022-10-02T00:09:22.646Z,9.57
2022-10-02T00:14:26.661Z,7.78
2022-10-02T00:19:28.538Z,9.05
2022-10-02T00:24:51.080Z,5.78
2022-10-02T00:29:56.169Z,5.47
2022-10-02T00:35:16.628Z,4.13
2022-10-02T00:40:50.223Z,6.68
2022-10-02T00:46:35.882Z,8.02
2022-10-02T00:51:52.188Z,8.57
2022-10-02T00:57:18.835Z,4.18
2022-10-02T01:02:26.262Z,4.80
2022-10-02T01:07:28.587Z,6.07
2022-10-02T01:12:30.236Z,5.63
2022-10-02T01:17:34.404Z,6.13
2022-10-02T01:22:45.566Z,5.70
2022-10-02T01:27:47.847Z,6.57
2022-10-02T01:32:53.276Z,7.75
2022-10-02T01:37:55.632Z,6.95
2022-10-02T01:43:08.762Z,8.57
2022-10-02T01:48:21.935Z,4.90
2022-10-02T01:53:49.759Z,9.40
2022-10-02T01:59:11.599Z,4.63
2022-10-02T02:04:33.337Z,7.40
2022-10-02T02:09:50.760Z,8.60
2022-10-02T02:15:00.320Z,4.72
2022-10-02T02:20:13.744Z,7.28
2022-10-02T02:25:28.003Z,6.93
2022-10-02T02:30:31.755Z,7.47
2022-10-02T02:35:39.289Z,6.93
2022-10-02T02:40:45.508Z,7.88
2022-10-02T02:46:01.266Z,6.53
2022-10-02T02:51:15.788Z,6.32
2022-10-02T02:56:20.633Z,5.68
2022-10-02T03:01:22.654Z,7.28
2022-10-02T03:06:33.682Z,5.93
2022-10-02T03:11:41.654Z,6.57
2022-10-02T03:17:01.465Z,7.18
2022-10-02T03:22:31.421Z,6.32
2022-10-02T03:32:41.945Z,5.10
2022-10-02T03:37:48.027Z,6.07
2022-10-02T03:42:49.824Z,6.35
2022-10-02T03:47:51.360Z,4.57
2022-10-02T03:52:53.633Z,7.63
2022-10-02T03:57:57.597Z,8.35
2022-10-02T04:03:03.151Z,6.40
2022-10-02T04:08:18.968Z,6.40
2022-10-02T04:13:35.202Z,6.97
2022-10-02T04:18:48.250Z,14.43
2022-10-02T04:23:56.699Z,5.45
2022-10-02T04:29:22.012Z,7.10
2022-10-02T04:34:23.552Z,9.75
2022-10-02T04:39:51.131Z,7.78
2022-10-02T04:45:15.632Z,13.85
2022-10-02T04:50:32.475Z,7.35
2022-10-02T04:56:03.093Z,10.63
2022-10-02T05:01:15.016Z,9.90
2022-10-02T05:06:31.578Z,12.55
2022-10-02T05:11:47.563Z,7.80
2022-10-02T05:17:10.365Z,10.23
2022-10-02T05:22:21.412Z,8.95
2022-10-02T05:27:35.934Z,6.88
2022-10-02T05:33:01.933Z,8.88
2022-10-02T05:38:36.157Z,9.93
2022-10-02T05:43:48.620Z,7.72
2022-10-02T05:48:58.886Z,15.15
2022-10-02T05:54:07.054Z,9.30
2022-10-02T05:59:20.341Z,11.30
2022-10-02T06:04:33.630Z,10.15
2022-10-02T06:09:35.127Z,6.25
2022-10-02T06:14:41.958Z,7.63
2022-10-02T06:20:04.649Z,8.00
2022-10-02T06:25:26.597Z,10.60
2022-10-02T06:30:31.957Z,6.95
2022-10-02T06:35:51.697Z,8.32
2022-10-02T06:41:06.383Z,7.72
2022-10-02T06:46:24.889Z,8.80
2022-10-02T06:52:16.927Z,6.85
2022-10-02T06:57:40.918Z,10.38
2022-10-02T07:02:55.336Z,8.45
2022-10-02T07:08:29.288Z,9.02
2022-10-02T07:13:57.249Z,5.85
2022-10-02T07:19:07.913Z,8.88
2022-10-02T07:24:47.127Z,6.60
2022-10-02T07:29:59.619Z,8.90
2022-10-02T07:35:20.039Z,6.68
2022-10-02T07:40:29.501Z,6.47
2022-10-02T07:45:44.202Z,7.15
2022-10-02T07:51:27.169Z,3.72
2022-10-02T07:56:29.976Z,4.90
2022-10-02T08:01:36.431Z,5.13
2022-10-02T08:06:39.056Z,3.92
2022-10-02T08:11:49.637Z,8.30
2022-10-02T08:16:57.846Z,3.85
2022-10-02T08:22:14.849Z,6.88
2022-10-02T08:27:22.784Z,5.38
2022-10-02T08:32:34.596Z,4.40
2022-10-02T08:38:10.218Z,5.53
2022-10-02T08:43:17.547Z,5.93
2022-10-02T08:48:51.150Z,8.00
2022-10-02T08:54:07.782Z,6.63
2022-10-02T08:59:36.028Z,10.27
2022-10-02T09:05:00.970Z,7.10
2022-10-02T09:10:45.691Z,8.27
2022-10-02T09:15:58.787Z,8.57
2022-10-02T09:21:41.864Z,7.75
2022-10-02T09:27:02.127Z,6.45
2022-10-02T09:32:34.634Z,6.95
2022-10-02T09:37:54.895Z,6.90
2022-10-02T09:43:11.675Z,6.10
2022-10-02T09:48:16.179Z,4.00
2022-10-02T09:53:55.812Z,7.78
2022-10-02T09:59:34.720Z,5.03
2022-10-02T10:05:06.060Z,5.80
2022-10-02T10:10:42.204Z,3.97
2022-10-02T10:16:22.322Z,5.07
2022-10-02T10:21:48.789Z,4.20
2022-10-02T10:27:08.303Z,3.25
2022-10-02T10:32:43.883Z,4.03
2022-10-02T10:38:32.906Z,2.88
2022-10-02T10:43:56.413Z,2.92
2022-10-02T10:49:30.355Z,4.15
2022-10-02T10:54:34.531Z,2.80
2022-10-02T11:00:01.047Z,3.78
2022-10-02T11:05:24.387Z,1.80
2022-10-02T11:10:58.271Z,1.75
2022-10-02T11:16:07.330Z,2.03
2022-10-02T11:21:20.028Z,3.75
2022-10-02T11:26:39.552Z,1.38
2022-10-02T11:31:47.085Z,1.80
2022-10-02T11:36:48.703Z,4.00
2022-10-02T11:42:06.619Z,4.07
2022-10-02T11:47:18.546Z,3.70
2022-10-02T11:52:26.216Z,2.35
2022-10-02T11:57:40.327Z,2.70
2022-10-02T12:02:59.906Z,2.25
2022-10-02T12:08:41.219Z,1.95
2022-10-02T12:14:04.545Z,1.75
2022-10-02T12:19:37.079Z,3.47
2022-10-02T12:25:04.671Z,1.73
2022-10-02T12:30:18.504Z,2.50
2022-10-02T12:35:23.079Z,3.03
2022-10-02T12:40:52.595Z,2.70
2022-10-02T12:46:13.611Z,3.60
2022-10-02T12:51:30.040Z,4.35
2022-10-02T12:56:45.761Z,4.40
2022-10-02T13:01:53.023Z,6.30
2022-10-02T13:07:13.542Z,3.78
2022-10-02T13:12:21.151Z,5.50
2022-10-02T13:17:29.165Z,3.92
2022-10-02T13:22:39.780Z,3.08
2022-10-02T13:28:23.936Z,3.15
2022-10-02T13:33:42.410Z,2.38
2022-10-02T13:39:04.884Z,3.40
2022-10-02T13:44:18.342Z,3.35
2022-10-02T13:49:30.689Z,3.10
2022-10-02T13:54:38.341Z,2.83
2022-10-02T14:00:02.637Z,3.40
2022-10-02T14:05:27.340Z,3.28
2022-10-02T14:11:14.701Z,3.20
2022-10-02T14:16:30.545Z,3.00
2022-10-02T14:21:38.991Z,1.75
2022-10-02T14:27:14.521Z,2.83
2022-10-02T14:32:42.677Z,1.02
2022-10-02T14:38:13.914Z,2.25
2022-10-02T14:43:18.620Z,1.65
2022-10-02T14:48:51.877Z,4.32
2022-10-02T14:54:01.659Z,3.22
2022-10-02T14:59:40.903Z,3.05
2022-10-02T15:04:55.091Z,3.03
2022-10-02T15:10:06.321Z,2.30
2022-10-02T15:15:13.713Z,2.78
2022-10-02T15:20:38.296Z,3.08
2022-10-02T15:26:12.970Z,2.72
2022-10-02T15:32:02.052Z,2.80
2022-10-02T15:37:13.033Z,4.70
2022-10-02T15:42:47.008Z,7.38
2022-10-02T15:48:23.300Z,4.57
2022-10-02T15:53:45.762Z,5.80
2022-10-02T15:59:40.110Z,4.40
2022-10-02T16:05:00.190Z,8.35
2022-10-02T16:10:08.380Z,6.07
2022-10-02T16:15:34.469Z,6.78
2022-10-02T16:20:41.874Z,5.78
2022-10-02T16:26:08.305Z,6.18
2022-10-02T16:31:33.393Z,7.50
2022-10-02T16:36:57.022Z,8.60
2022-10-02T16:42:14.265Z,8.63
2022-10-02T16:47:27.620Z,9.15
2022-10-02T16:52:45.633Z,14.45
2022-10-02T16:57:54.268Z,16.95
2022-10-02T17:03:19.157Z,12.30
2022-10-02T17:08:45.868Z,14.88
2022-10-02T17:14:19.562Z,15.70
2022-10-02T17:19:34.281Z,21.52
2022-10-02T17:24:48.832Z,21.25
2022-10-02T17:30:16.476Z,22.63
2022-10-02T17:35:31.647Z,18.23
2022-10-02T17:40:59.948Z,14.80
2022-10-02T17:46:19.677Z,12.95
2022-10-02T17:57:01.430Z,11.65
2022-10-02T18:02:06.264Z,11.82
2022-10-02T18:07:52.746Z,12.50
2022-10-02T18:13:14.982Z,12.57
2022-10-02T18:18:19.523Z,16.20
2022-10-02T18:23:21.293Z,19.05
2022-10-02T18:28:53.701Z,16.58
2022-10-02T18:34:06.687Z,12.77
2022-10-02T18:39:27.445Z,10.15
2022-10-02T18:44:48.584Z,10.55
2022-10-02T18:49:58.016Z,10.82
2022-10-02T18:55:42.330Z,11.15
2022-10-02T19:01:03.115Z,11.98
2022-10-02T19:06:19.586Z,10.30
2022-10-02T19:11:28.206Z,11.38
2022-10-02T19:16:32.690Z,17.52
2022-10-02T19:21:36.119Z,19.20
2022-10-02T19:26:44.000Z,17.90
2022-10-02T19:31:46.592Z,20.02
2022-10-02T19:36:51.989Z,18.10
2022-10-02T19:41:57.531Z,19.20
2022-10-02T19:47:03.294Z,18.27
2022-10-02T19:52:25.408Z,24.52
2022-10-02T19:57:33.721Z,25.40
2022-10-02T20:02:40.402Z,24.92
2022-10-02T20:07:42.972Z,26.65
2022-10-02T20:12:54.517Z,23.83
2022-10-02T20:17:56.076Z,21.35
2022-10-02T20:23:01.698Z,23.75
2022-10-02T20:28:22.741Z,19.85
2022-10-02T20:33:40.270Z,16.35
2022-10-02T20:38:50.613Z,16.58
2022-10-02T20:44:06.192Z,13.90
2022-10-02T20:49:25.708Z,12.40
2022-10-02T20:54:39.522Z,12.60
2022-10-02T21:00:15.455Z,13.85
2022-10-02T21:05:49.669Z,15.75
2022-10-02T21:11:15.355Z,62.22
2022-10-02T21:16:50.301Z,21.95
2022-10-02T21:22:01.598Z,21.50
2022-10-02T21:27:06.964Z,20.58
2022-10-02T21:32:11.678Z,24.27
2022-10-02T21:37:53.567Z,20.00
2022-10-02T21:43:32.564Z,26.45
2022-10-02T21:49:05.202Z,27.60
2022-10-02T21:54:24.793Z,21.33
2022-10-02T21:59:38.395Z,22.67
2022-10-02T22:05:01.779Z,25.05
2022-10-02T22:10:06.300Z,26.90
2022-10-02T22:15:27.653Z,34.00
2022-10-02T22:20:38.234Z,37.63
2022-10-02T22:25:57.867Z,41.13
2022-10-02T22:31:10.853Z,41.35
2022-10-02T22:36:24.836Z,42.45
2022-10-02T22:41:34.162Z,47.85
2022-10-02T22:46:47.771Z,45.07
2022-10-02T22:52:20.664Z,43.75
2022-10-02T22:57:33.356Z,53.95
2022-10-02T23:02:56.184Z,48.30
2022-10-02T23:08:17.764Z,46.38
2022-10-02T23:13:40.643Z,30.02
2022-10-02T23:18:49.259Z,29.20
2022-10-02T23:23:59.758Z,49.95
2022-10-02T23:29:19.340Z,29.80
2022-10-02T23:34:34.234Z,34.33
2022-10-02T23:39:45.386Z,54.80
2022-10-02T23:45:06.190Z,37.30
2022-10-02T23:50:22.751Z,43.42
2022-10-02T23:55:57.202Z,188.20
